Time;durP1;ratioP1;P1;durP2;ratioP2;P2;SDS_P1;SDS_P2;PMS_P1;PMS_P2;Temp;Humidity;BMP_temperature;BMP_pressure;BME280_temperature;BME280_humidity;BME280_pressure;Samples;Min_cycle;Max_cycle;Signal;HPM_P1;HPM_P2
2024/02/29 00:02:13;;;;;;;10.20;2.53;;;8.40;83.90;;;;;;5028199;28;20458;-67
2024/02/29 00:04:39;;;;;;;5.53;2.92;;;8.40;83.80;;;;;;5027937;28;20037;-68
2024/02/29 00:07:05;;;;;;;10.98;2.63;;;8.40;83.70;;;;;;5025823;28;20022;-67
2024/02/29 00:09:32;;;;;;;3.33;2.10;;;8.40;83.60;;;;;;5026233;28;20037;-67
2024/02/29 00:11:58;;;;;;;3.42;2.28;;;8.40;83.50;;;;;;5032701;28;20033;-67
2024/02/29 00:14:24;;;;;;;3.10;2.20;;;8.40;83.40;;;;;;5029420;28;20107;-66
2024/02/29 00:16:50;;;;;;;5.00;2.55;;;8.40;83.50;;;;;;5025828;28;20119;-65
2024/02/29 00:19:17;;;;;;;5.07;2.00;;;8.40;83.40;;;;;;5036086;28;20022;-66
2024/02/29 00:21:45;;;;;;;3.35;2.30;;;8.40;83.50;;;;;;5025836;28;20033;-66
2024/02/29 00:24:11;;;;;;;2.40;1.77;;;8.30;83.30;;;;;;5028370;28;20039;-65
2024/02/29 00:26:37;;;;;;;3.75;2.75;;;8.30;83.30;;;;;;5019757;28;20484;-66
2024/02/29 00:29:03;;;;;;;5.05;2.83;;;8.30;83.30;;;;;;5032048;28;20028;-66
2024/02/29 00:31:29;;;;;;;3.40;2.65;;;8.30;83.20;;;;;;5028408;28;20053;-66
2024/02/29 00:33:55;;;;;;;3.53;2.25;;;8.30;83.30;;;;;;5022866;28;20025;-66
2024/02/29 00:36:21;;;;;;;4.30;2.10;;;8.30;83.20;;;;;;5032193;28;20166;-66
2024/02/29 00:38:47;;;;;;;2.72;2.03;;;8.30;83.20;;;;;;5038248;28;20032;-66
2024/02/29 00:41:14;;;;;;;3.92;2.63;;;8.30;83.20;;;;;;5029058;28;20041;-66
2024/02/29 00:43:43;;;;;;;2.97;2.25;;;8.30;83.10;;;;;;5028399;28;20041;-66
2024/02/29 00:46:09;;;;;;;7.03;2.45;;;8.30;83.00;;;;;;5028118;28;20033;-66
2024/02/29 00:48:38;;;;;;;3.47;2.05;;;8.30;83.00;;;;;;5027624;28;20526;-65
2024/02/29 00:51:04;;;;;;;5.43;2.45;;;8.30;82.70;;;;;;5032308;28;20064;-65
2024/02/29 00:53:30;;;;;;;4.88;2.15;;;8.30;83.30;;;;;;5031864;28;20056;-66
2024/02/29 00:55:56;;;;;;;4.45;2.15;;;8.30;82.60;;;;;;5029196;28;20064;-68
2024/02/29 00:58:22;;;;;;;4.18;1.80;;;8.40;82.60;;;;;;5029365;28;20091;-66
2024/02/29 01:00:48;;;;;;;5.47;2.28;;;8.40;82.30;;;;;;5020714;28;20025;-66
2024/02/29 01:03:14;;;;;;;5.88;2.25;;;8.40;82.20;;;;;;5028462;28;20488;-65
2024/02/29 01:05:40;;;;;;;4.53;2.38;;;8.40;82.10;;;;;;5025728;28;20067;-66
2024/02/29 01:08:07;;;;;;;4.28;2.15;;;8.50;82.10;;;;;;5028319;28;20381;-66
2024/02/29 01:10:32;;;;;;;6.22;2.17;;;8.50;81.80;;;;;;5022675;28;20055;-66
2024/02/29 01:12:58;;;;;;;3.85;2.22;;;8.50;81.80;;;;;;5028542;28;20388;-66
2024/02/29 01:15:25;;;;;;;3.85;2.25;;;8.60;81.70;;;;;;5026530;28;20667;-65
2024/02/29 01:17:51;;;;;;;5.07;1.92;;;8.60;81.60;;;;;;5032270;28;20112;-66
2024/02/29 01:20:17;;;;;;;4.40;2.63;;;8.60;81.60;;;;;;5027876;28;20137;-66
2024/02/29 01:22:46;;;;;;;4.05;1.75;;;8.60;81.40;;;;;;5029152;28;20036;-68
2024/02/29 01:25:12;;;;;;;3.40;2.08;;;8.70;81.40;;;;;;5026820;28;20029;-67
2024/02/29 01:27:38;;;;;;;4.20;2.13;;;8.70;81.30;;;;;;5025209;28;20086;-66
2024/02/29 01:30:05;;;;;;;5.18;2.33;;;8.70;81.20;;;;;;5030428;28;20037;-66
2024/02/29 01:32:31;;;;;;;7.20;2.45;;;8.70;81.30;;;;;;5031628;28;20025;-65
2024/02/29 01:34:58;;;;;;;4.68;2.65;;;8.70;81.10;;;;;;5023010;28;20104;-66
2024/02/29 01:37:24;;;;;;;4.45;2.80;;;8.60;80.80;;;;;;5032292;28;20573;-66
2024/02/29 01:39:50;;;;;;;6.95;2.10;;;8.70;80.90;;;;;;5031912;28;20108;-66
2024/02/29 01:42:16;;;;;;;3.03;1.73;;;8.70;80.80;;;;;;5034036;28;20548;-66
2024/02/29 01:44:56;;;;;;;7.28;2.72;;;8.70;80.70;;;;;;5032044;28;20034;-66
2024/02/29 01:47:23;;;;;;;5.50;2.25;;;8.70;80.50;;;;;;5026366;28;20033;-65
2024/02/29 01:49:50;;;;;;;5.15;2.40;;;8.70;80.60;;;;;;5030999;28;20060;-66
2024/02/29 01:52:17;;;;;;;7.50;2.60;;;8.80;80.30;;;;;;5032743;28;20029;-65
2024/02/29 01:54:44;;;;;;;5.97;3.08;;;8.70;80.20;;;;;;5035967;28;20492;-66
2024/02/29 01:57:10;;;;;;;3.97;2.05;;;8.80;80.20;;;;;;5036308;28;20033;-66
2024/02/29 01:59:37;;;;;;;4.88;2.70;;;8.80;80.20;;;;;;5032394;28;20037;-66
2024/02/29 02:02:03;;;;;;;8.43;2.85;;;8.80;79.90;;;;;;5029743;28;20029;-65
2024/02/29 02:04:29;;;;;;;4.07;2.22;;;8.80;79.90;;;;;;5031295;28;20056;-68
2024/02/29 02:06:59;;;;;;;4.90;2.30;;;8.80;79.80;;;;;;5030076;28;20038;-68
2024/02/29 02:09:26;;;;;;;4.00;2.70;;;8.80;79.80;;;;;;5029255;28;20076;-68
2024/02/29 02:11:52;;;;;;;7.15;2.30;;;8.80;79.80;;;;;;5028103;28;20022;-68
2024/02/29 02:14:18;;;;;;;4.80;2.42;;;8.80;79.60;;;;;;5032097;28;20067;-66
2024/02/29 02:16:44;;;;;;;4.78;2.45;;;8.80;79.60;;;;;;5032297;28;20281;-66
2024/02/29 02:19:14;;;;;;;3.40;2.42;;;8.80;79.50;;;;;;5036479;28;20550;-66
2024/02/29 02:21:40;;;;;;;4.82;2.33;;;8.90;79.60;;;;;;5025965;28;20075;-68
2024/02/29 02:24:06;;;;;;;5.13;2.70;;;8.90;79.60;;;;;;5030592;28;20410;-66
2024/02/29 02:26:33;;;;;;;6.45;2.85;;;8.90;79.50;;;;;;5027405;28;20040;-66
2024/02/29 02:29:00;;;;;;;5.50;2.90;;;8.90;79.50;;;;;;5031923;28;20079;-65
2024/02/29 02:31:26;;;;;;;6.72;3.47;;;8.90;79.50;;;;;;5028805;28;20116;-66
2024/02/29 02:33:52;;;;;;;6.10;2.65;;;8.90;79.30;;;;;;5030014;28;20167;-68
2024/02/29 02:36:18;;;;;;;4.45;2.70;;;8.90;79.00;;;;;;5028289;28;20049;-66
2024/02/29 02:38:44;;;;;;;6.05;2.95;;;8.80;79.00;;;;;;5031849;28;20476;-65
2024/02/29 02:41:11;;;;;;;8.43;3.40;;;8.90;79.10;;;;;;5029628;28;20037;-66
2024/02/29 02:43:37;;;;;;;5.22;3.20;;;8.90;79.20;;;;;;5032092;28;20037;-65
2024/02/29 02:46:03;;;;;;;7.05;2.60;;;8.80;79.00;;;;;;5036234;28;20038;-65
2024/02/29 02:48:29;;;;;;;4.28;2.45;;;8.80;78.90;;;;;;5037965;28;20036;-67
2024/02/29 02:50:55;;;;;;;5.88;2.90;;;8.80;79.00;;;;;;5031347;28;20056;-68
2024/02/29 02:53:21;;;;;;;4.15;2.35;;;8.80;78.90;;;;;;5030884;28;20077;-69
2024/02/29 02:55:47;;;;;;;4.45;2.55;;;8.80;78.90;;;;;;5032796;28;20064;-68
2024/02/29 02:58:13;;;;;;;7.43;2.85;;;8.80;78.90;;;;;;5028129;28;20144;-68
2024/02/29 03:00:39;;;;;;;7.88;3.05;;;8.80;78.60;;;;;;5028046;28;20040;-68
2024/02/29 03:03:05;;;;;;;5.50;2.90;;;8.80;78.70;;;;;;5025113;28;20609;-68
2024/02/29 03:05:31;;;;;;;6.25;2.72;;;8.80;78.50;;;;;;5031101;28;20036;-68
2024/02/29 03:07:57;;;;;;;7.55;2.85;;;8.80;78.40;;;;;;5028664;28;20029;-68
2024/02/29 03:10:23;;;;;;;5.28;2.58;;;8.80;78.30;;;;;;5040604;28;20033;-68
2024/02/29 03:12:49;;;;;;;5.35;2.45;;;8.80;78.50;;;;;;5030195;28;20045;-68
2024/02/29 03:15:16;;;;;;;6.63;3.13;;;8.80;78.50;;;;;;5030513;28;20026;-67
2024/02/29 03:17:42;;;;;;;5.85;3.55;;;8.80;78.60;;;;;;5027926;28;20498;-67
2024/02/29 03:20:13;;;;;;;7.32;3.38;;;8.70;78.60;;;;;;5029296;28;20049;-68
2024/02/29 03:22:42;;;;;;;6.43;2.78;;;8.80;78.60;;;;;;5030000;28;20075;-65
2024/02/29 03:25:09;;;;;;;7.00;3.22;;;8.80;78.60;;;;;;5030175;28;20053;-65
2024/02/29 03:27:35;;;;;;;5.35;3.25;;;8.80;78.60;;;;;;5032106;28;20030;-65
2024/02/29 03:30:02;;;;;;;5.65;3.50;;;8.80;78.60;;;;;;5032895;28;20055;-65
2024/02/29 03:32:28;;;;;;;5.57;2.20;;;8.80;78.70;;;;;;5028761;28;20473;-65
2024/02/29 03:34:54;;;;;;;8.77;3.13;;;8.90;78.70;;;;;;5035376;28;20099;-66
2024/02/29 03:37:20;;;;;;;8.25;3.83;;;8.90;78.60;;;;;;5029259;28;20033;-65
2024/02/29 03:39:46;;;;;;;8.95;3.38;;;8.90;78.50;;;;;;5032584;28;20021;-65
2024/02/29 03:42:12;;;;;;;6.78;3.42;;;8.80;78.60;;;;;;5026093;28;20079;-65
2024/02/29 03:44:41;;;;;;;4.80;3.17;;;8.90;78.80;;;;;;5030302;28;20029;-65
2024/02/29 03:47:07;;;;;;;8.30;3.95;;;8.90;78.70;;;;;;5026187;28;20045;-67
2024/02/29 03:49:33;;;;;;;3.97;2.65;;;8.90;78.70;;;;;;5026663;28;20045;-67
2024/02/29 03:52:00;;;;;;;5.53;3.20;;;8.80;78.80;;;;;;5034383;28;20045;-67
2024/02/29 03:54:27;;;;;;;7.40;3.05;;;8.80;79.00;;;;;;5034277;28;20029;-67
2024/02/29 03:56:53;;;;;;;6.03;3.05;;;8.80;79.10;;;;;;5026006;28;20037;-65
2024/02/29 03:59:19;;;;;;;4.57;2.45;;;8.80;79.10;;;;;;5023900;28;21093;-66
2024/02/29 04:01:49;;;;;;;6.53;3.47;;;8.90;79.10;;;;;;5012021;28;20045;-66
2024/02/29 04:04:19;;;;;;;8.60;3.28;;;8.90;79.10;;;;;;5027117;28;20392;-66
2024/02/29 04:06:46;;;;;;;6.00;2.47;;;8.80;79.20;;;;;;5024512;28;20087;-65
2024/02/29 04:09:13;;;;;;;3.60;2.45;;;8.90;79.40;;;;;;5029666;28;20037;-65
2024/02/29 04:11:40;;;;;;;5.20;3.08;;;8.90;79.30;;;;;;5028421;28;20626;-66
2024/02/29 04:14:06;;;;;;;5.45;3.30;;;8.90;79.40;;;;;;5024607;28;20116;-65
2024/02/29 04:16:36;;;;;;;5.28;2.50;;;8.90;79.50;;;;;;5029904;28;20117;-66
2024/02/29 04:19:02;;;;;;;5.18;2.65;;;8.90;79.40;;;;;;5026533;28;20097;-65
2024/02/29 04:21:28;;;;;;;10.13;2.45;;;9.00;79.40;;;;;;5029756;28;20026;-66
2024/02/29 04:23:54;;;;;;;5.43;2.60;;;9.00;79.40;;;;;;5028683;28;20073;-65
2024/02/29 04:26:23;;;;;;;5.40;3.35;;;9.00;79.40;;;;;;5031751;28;20441;-65
2024/02/29 04:28:50;;;;;;;3.95;2.35;;;8.90;79.50;;;;;;5030274;28;20485;-65
2024/02/29 04:31:17;;;;;;;4.68;2.40;;;8.90;79.70;;;;;;5035863;28;20076;-65
2024/02/29 04:33:46;;;;;;;5.55;2.75;;;8.90;79.70;;;;;;5028229;28;20485;-65
2024/02/29 04:36:12;;;;;;;6.15;3.45;;;8.90;79.80;;;;;;5028934;28;20029;-65
2024/02/29 04:38:38;;;;;;;3.55;2.10;;;8.90;79.80;;;;;;5027653;28;20021;-65
2024/02/29 04:41:04;;;;;;;7.00;3.28;;;8.90;79.90;;;;;;5029279;28;20064;-65
2024/02/29 04:43:30;;;;;;;9.52;3.28;;;8.90;79.90;;;;;;5018378;28;20072;-66
2024/02/29 04:45:56;;;;;;;5.80;3.50;;;8.90;80.00;;;;;;5029066;28;20524;-65
2024/02/29 04:48:22;;;;;;;3.75;2.53;;;8.90;79.90;;;;;;5029089;28;20148;-66
2024/02/29 04:50:48;;;;;;;6.55;3.15;;;8.90;79.90;;;;;;5026729;28;20040;-65
2024/02/29 04:53:14;;;;;;;4.00;2.28;;;8.90;80.00;;;;;;5034757;28;20033;-65
2024/02/29 04:55:44;;;;;;;5.30;2.72;;;8.90;80.00;;;;;;5035901;28;20471;-67
2024/02/29 04:58:10;;;;;;;5.10;2.80;;;8.90;80.20;;;;;;5024846;28;20029;-67
2024/02/29 05:00:36;;;;;;;8.52;3.72;;;8.90;80.30;;;;;;5019860;28;20175;-68
2024/02/29 05:03:02;;;;;;;6.05;2.42;;;8.90;80.30;;;;;;5035628;28;20124;-67
2024/02/29 05:05:28;;;;;;;5.78;3.30;;;8.90;80.60;;;;;;5023938;28;20476;-67
2024/02/29 05:07:55;;;;;;;3.45;2.38;;;8.80;80.90;;;;;;5031462;28;20045;-68
2024/02/29 05:10:22;;;;;;;6.93;3.42;;;8.80;81.00;;;;;;5031682;28;20044;-68
2024/02/29 05:12:52;;;;;;;4.45;2.20;;;8.80;81.10;;;;;;5035517;28;20038;-68
2024/02/29 05:15:23;;;;;;;7.00;2.85;;;8.80;81.10;;;;;;5029894;28;20032;-67
2024/02/29 05:17:49;;;;;;;5.45;3.08;;;8.80;81.40;;;;;;5022181;28;20416;-68
2024/02/29 05:20:16;;;;;;;7.75;3.03;;;8.80;81.50;;;;;;5027993;28;20404;-68
2024/02/29 05:22:43;;;;;;;4.55;2.72;;;8.80;81.60;;;;;;5028215;28;20032;-67
2024/02/29 05:25:13;;;;;;;4.93;3.25;;;8.80;81.70;;;;;;5030990;28;20485;-68
2024/02/29 05:27:39;;;;;;;5.07;2.53;;;8.80;81.70;;;;;;5025944;28;20048;-68
2024/02/29 05:30:05;;;;;;;20.38;2.85;;;8.80;81.70;;;;;;5033938;28;20028;-68
2024/02/29 05:32:32;;;;;;;5.28;2.03;;;8.80;81.70;;;;;;5023179;28;20576;-65
2024/02/29 05:34:58;;;;;;;6.13;3.38;;;8.80;82.00;;;;;;5027547;28;20556;-66
2024/02/29 05:37:24;;;;;;;3.65;2.00;;;8.80;82.00;;;;;;5030822;28;20128;-68
2024/02/29 05:39:50;;;;;;;4.25;2.17;;;8.80;82.10;;;;;;5029947;28;20489;-67
2024/02/29 05:42:15;;;;;;;4.30;2.85;;;8.80;82.20;;;;;;5036020;28;20021;-68
2024/02/29 05:44:42;;;;;;;2.55;1.83;;;8.80;82.20;;;;;;5028478;28;20136;-67
2024/02/29 05:47:08;;;;;;;5.75;2.67;;;8.80;82.40;;;;;;5022243;28;20079;-67
2024/02/29 05:49:34;;;;;;;3.78;2.03;;;8.80;82.50;;;;;;5024813;28;20397;-67
2024/02/29 05:52:00;;;;;;;5.82;2.85;;;8.80;82.50;;;;;;5024819;28;20164;-68
2024/02/29 05:54:27;;;;;;;4.88;2.30;;;8.90;82.60;;;;;;5029650;28;20469;-68
2024/02/29 05:56:54;;;;;;;3.97;2.42;;;8.90;82.60;;;;;;5024084;28;20477;-66
2024/02/29 05:59:20;;;;;;;3.28;1.98;;;8.90;82.50;;;;;;5025819;28;20017;-65
2024/02/29 06:01:46;;;;;;;5.10;2.90;;;8.90;82.50;;;;;;5032990;28;20036;-67
2024/02/29 06:04:12;;;;;;;4.93;2.95;;;8.90;82.50;;;;;;5030366;28;20053;-65
2024/02/29 06:06:37;;;;;;;4.18;2.13;;;8.90;82.60;;;;;;5027448;28;20116;-65
2024/02/29 06:09:03;;;;;;;3.78;1.90;;;8.90;82.70;;;;;;5056362;28;20055;-65
2024/02/29 06:11:29;;;;;;;4.47;2.58;;;8.90;82.70;;;;;;5030485;28;20100;-65
2024/02/29 06:13:55;;;;;;;6.75;3.00;;;8.90;82.80;;;;;;5028814;28;20033;-64
2024/02/29 06:16:21;;;;;;;4.63;2.80;;;8.90;82.90;;;;;;5030602;28;20584;-64
2024/02/29 06:18:47;;;;;;;4.10;1.83;;;8.90;83.00;;;;;;5032057;28;20137;-64
2024/02/29 06:21:13;;;;;;;4.03;2.38;;;8.90;83.00;;;;;;5028743;28;20110;-68
2024/02/29 06:23:39;;;;;;;5.32;2.58;;;8.90;82.90;;;;;;5030306;28;20569;-68
2024/02/29 06:26:04;;;;;;;5.00;2.47;;;9.00;82.90;;;;;;5034875;28;20033;-65
2024/02/29 06:28:30;;;;;;;3.22;1.95;;;9.00;82.90;;;;;;5030430;28;20030;-65
2024/02/29 06:30:56;;;;;;;4.22;2.30;;;9.00;82.90;;;;;;5033921;28;20393;-65
2024/02/29 06:33:21;;;;;;;6.22;2.35;;;9.00;82.90;;;;;;5032642;28;20034;-68
2024/02/29 06:35:47;;;;;;;4.78;1.95;;;9.00;82.90;;;;;;5033055;28;20034;-68
2024/02/29 06:38:14;;;;;;;5.35;2.28;;;9.00;82.90;;;;;;5033660;28;20112;-68
2024/02/29 06:40:40;;;;;;;5.15;3.00;;;9.00;82.90;;;;;;5030454;28;20032;-68
2024/02/29 06:43:06;;;;;;;4.10;2.65;;;9.00;82.90;;;;;;5030980;28;20388;-68
2024/02/29 06:45:31;;;;;;;4.28;2.40;;;9.00;83.00;;;;;;5031200;28;20029;-68
2024/02/29 06:47:57;;;;;;;3.80;2.42;;;9.00;82.90;;;;;;5034601;28;20053;-68
2024/02/29 06:50:23;;;;;;;3.75;2.38;;;9.10;83.00;;;;;;5036357;28;20044;-68
2024/02/29 06:52:48;;;;;;;4.63;3.13;;;9.00;83.00;;;;;;5031235;28;20037;-68
2024/02/29 06:55:14;;;;;;;3.50;1.98;;;9.10;83.10;;;;;;5030167;28;20029;-68
2024/02/29 06:57:40;;;;;;;5.85;2.35;;;9.10;83.20;;;;;;5059474;28;20032;-68
2024/02/29 07:00:07;;;;;;;5.35;2.50;;;9.10;83.20;;;;;;5032287;28;20026;-65
2024/02/29 07:02:33;;;;;;;3.45;1.90;;;9.10;83.10;;;;;;5037719;28;20083;-65
2024/02/29 07:04:59;;;;;;;8.05;3.30;;;9.10;83.20;;;;;;5039398;28;20029;-65
2024/02/29 07:07:25;;;;;;;5.72;2.42;;;9.10;83.20;;;;;;5032242;28;20029;-65
2024/02/29 07:09:54;;;;;;;5.00;2.35;;;9.20;83.20;;;;;;5021847;28;20033;-65
2024/02/29 07:12:20;;;;;;;4.78;2.38;;;9.20;83.20;;;;;;5031528;28;20025;-65
2024/02/29 07:14:46;;;;;;;4.47;2.53;;;9.10;83.20;;;;;;5033249;28;20026;-64
2024/02/29 07:17:11;;;;;;;3.67;1.77;;;9.20;83.20;;;;;;5025313;28;20385;-65
2024/02/29 07:19:38;;;;;;;5.80;2.97;;;9.20;83.30;;;;;;5031462;28;20037;-64
2024/02/29 07:22:04;;;;;;;5.82;2.67;;;9.20;83.30;;;;;;5035224;28;20528;-64
2024/02/29 07:24:31;;;;;;;6.43;3.25;;;9.20;83.40;;;;;;5039012;28;20037;-65
2024/02/29 07:26:57;;;;;;;6.53;2.70;;;9.20;83.40;;;;;;5039072;28;20026;-65
2024/02/29 07:29:23;;;;;;;3.63;2.10;;;9.20;83.50;;;;;;5038020;28;20030;-64
2024/02/29 07:31:49;;;;;;;6.40;1.92;;;9.20;83.50;;;;;;5036223;28;20025;-65
2024/02/29 07:34:16;;;;;;;4.22;2.33;;;9.20;83.60;;;;;;5033509;28;20059;-65
2024/02/29 07:36:42;;;;;;;5.13;2.30;;;9.20;83.60;;;;;;5033866;28;20152;-66
2024/02/29 07:39:11;;;;;;;7.65;2.55;;;9.20;83.70;;;;;;5036951;28;20029;-66
2024/02/29 07:41:37;;;;;;;3.78;2.38;;;9.20;83.90;;;;;;5034120;28;20037;-66
2024/02/29 07:44:03;;;;;;;2.75;2.25;;;9.20;83.90;;;;;;5035315;28;20040;-65
2024/02/29 07:46:28;;;;;;;5.18;2.72;;;9.20;83.90;;;;;;5070661;28;20044;-71
2024/02/29 07:48:54;;;;;;;6.00;2.90;;;9.20;84.00;;;;;;5033724;28;20037;-69
2024/02/29 07:51:20;;;;;;;5.47;2.35;;;9.20;83.90;;;;;;5030812;28;20053;-69
2024/02/29 07:53:45;;;;;;;5.97;2.60;;;9.20;83.90;;;;;;5032875;28;20555;-69
2024/02/29 07:56:11;;;;;;;3.78;2.53;;;9.20;83.90;;;;;;5027440;28;20051;-69
2024/02/29 07:58:37;;;;;;;8.23;4.30;;;9.20;84.00;;;;;;5030958;28;20061;-68
2024/02/29 08:01:02;;;;;;;4.07;2.47;;;9.20;84.10;;;;;;5036395;28;20393;-69
2024/02/29 08:03:28;;;;;;;5.40;2.60;;;9.20;84.00;;;;;;5034789;28;20443;-69
2024/02/29 08:05:55;;;;;;;6.88;3.05;;;9.20;84.00;;;;;;5029900;28;20033;-69
2024/02/29 08:08:21;;;;;;;4.22;2.53;;;9.30;84.10;;;;;;5034025;28;20057;-65
2024/02/29 08:10:47;;;;;;;5.38;2.35;;;9.30;84.10;;;;;;5030492;28;20022;-65
2024/02/29 08:13:13;;;;;;;7.10;2.72;;;9.20;84.00;;;;;;5027005;28;20087;-65
2024/02/29 08:15:38;;;;;;;6.07;3.92;;;9.20;84.10;;;;;;5032211;28;20516;-68
2024/02/29 08:18:04;;;;;;;7.22;2.60;;;9.30;84.30;;;;;;5027134;28;20042;-68
2024/02/29 08:20:30;;;;;;;2.65;1.88;;;9.30;84.30;;;;;;5031711;28;20025;-69
2024/02/29 08:22:56;;;;;;;5.20;2.88;;;9.30;84.30;;;;;;5033978;28;20057;-68
2024/02/29 08:25:23;;;;;;;5.88;1.98;;;9.30;84.20;;;;;;5031873;28;20595;-68
2024/02/29 08:27:50;;;;;;;7.05;2.53;;;9.40;84.20;;;;;;5036365;28;20566;-68
2024/02/29 08:30:16;;;;;;;5.93;2.78;;;9.50;84.00;;;;;;5030996;28;20524;-69
2024/02/29 08:32:42;;;;;;;4.38;1.95;;;9.50;83.90;;;;;;5030242;28;20100;-69
2024/02/29 08:35:08;;;;;;;3.80;2.35;;;9.50;83.90;;;;;;5028687;28;20021;-69
2024/02/29 08:37:34;;;;;;;7.63;3.20;;;9.40;84.00;;;;;;5035491;28;20029;-68
2024/02/29 08:40:01;;;;;;;4.82;2.58;;;9.40;84.00;;;;;;5028189;28;20117;-69
2024/02/29 08:42:27;;;;;;;5.90;3.65;;;9.50;84.10;;;;;;5045414;28;20068;-69
2024/02/29 08:44:53;;;;;;;4.53;2.20;;;9.50;84.00;;;;;;5030376;28;20037;-65
2024/02/29 08:47:18;;;;;;;4.05;2.63;;;9.50;84.00;;;;;;5018303;28;20036;-66
2024/02/29 08:49:44;;;;;;;3.85;2.22;;;9.50;84.00;;;;;;5033527;28;20054;-66
2024/02/29 08:52:10;;;;;;;5.35;2.63;;;9.60;83.90;;;;;;5016272;28;20037;-70
2024/02/29 08:54:36;;;;;;;6.53;2.58;;;9.60;83.80;;;;;;5021389;28;20041;-64
2024/02/29 08:57:07;;;;;;;3.53;2.00;;;9.60;83.70;;;;;;5018793;28;20029;-64
2024/02/29 08:59:33;;;;;;;3.42;1.85;;;9.60;83.60;;;;;;5029095;28;20405;-64
2024/02/29 09:02:00;;;;;;;5.82;2.63;;;9.60;83.70;;;;;;5013544;28;20026;-65
2024/02/29 09:04:26;;;;;;;4.68;2.47;;;9.60;83.70;;;;;;5025397;28;20041;-64
2024/02/29 09:06:52;;;;;;;4.70;2.35;;;9.60;83.80;;;;;;5021098;28;20026;-64
2024/02/29 09:09:18;;;;;;;8.75;2.90;;;9.60;83.60;;;;;;5025784;28;20120;-65
2024/02/29 09:11:44;;;;;;;3.67;2.20;;;9.60;83.70;;;;;;5038225;28;20022;-64
2024/02/29 09:14:09;;;;;;;4.38;2.53;;;9.70;83.70;;;;;;5034924;28;20036;-64
2024/02/29 09:16:35;;;;;;;4.75;2.28;;;9.70;83.70;;;;;;5037865;28;20069;-65
2024/02/29 09:19:02;;;;;;;7.80;2.85;;;9.70;83.60;;;;;;5017902;28;20030;-64
2024/02/29 09:21:28;;;;;;;3.90;2.17;;;9.70;83.50;;;;;;5025588;28;20519;-65
2024/02/29 09:23:53;;;;;;;3.25;1.83;;;9.70;83.50;;;;;;5028681;28;20041;-65
2024/02/29 09:26:19;;;;;;;4.60;2.60;;;9.80;83.50;;;;;;5027996;28;20037;-65
2024/02/29 09:28:45;;;;;;;4.20;2.72;;;9.80;83.50;;;;;;5032447;28;20029;-65
2024/02/29 09:31:14;;;;;;;4.72;3.22;;;9.90;83.50;;;;;;5026077;28;20030;-65
2024/02/29 09:33:40;;;;;;;5.85;2.85;;;9.90;83.50;;;;;;5027893;28;20029;-64
2024/02/29 09:36:13;;;;;;;4.05;1.95;;;9.90;83.40;;;;;;5027424;28;20040;-65
2024/02/29 09:38:40;;;;;;;2.05;1.73;;;10.00;83.40;;;;;;5027456;28;20477;-66
2024/02/29 09:41:07;;;;;;;3.65;1.90;;;10.00;83.40;;;;;;5028714;28;20087;-68
2024/02/29 09:43:33;;;;;;;3.17;2.47;;;10.10;83.30;;;;;;5028623;28;20021;-68
2024/02/29 09:45:59;;;;;;;4.63;2.30;;;10.10;83.20;;;;;;5030170;28;20489;-68
2024/02/29 09:48:25;;;;;;;3.83;2.55;;;10.00;83.20;;;;;;5021416;28;20111;-67
2024/02/29 09:51:01;;;;;;;2.65;2.33;;;10.10;83.30;;;;;;5028271;28;20458;-68
2024/02/29 09:53:28;;;;;;;4.45;2.60;;;10.20;83.30;;;;;;5027679;28;20056;-68
2024/02/29 09:55:57;;;;;;;6.75;2.75;;;10.30;83.20;;;;;;5032594;28;20034;-68
2024/02/29 09:58:26;;;;;;;3.58;1.70;;;10.30;83.10;;;;;;5032936;28;20021;-68
2024/02/29 10:00:52;;;;;;;5.32;2.53;;;10.40;83.00;;;;;;5031175;28;20018;-68
2024/02/29 10:03:18;;;;;;;5.80;2.97;;;10.40;83.00;;;;;;5031134;28;20022;-68
2024/02/29 10:05:45;;;;;;;5.82;2.67;;;10.40;83.00;;;;;;5030694;28;20076;-68
2024/02/29 10:08:11;;;;;;;12.82;7.90;;;10.40;83.00;;;;;;5034519;28;20144;-68
2024/02/29 10:10:37;;;;;;;7.72;3.78;;;10.50;83.00;;;;;;5033063;28;20112;-68
2024/02/29 10:13:03;;;;;;;5.63;3.15;;;10.50;82.90;;;;;;5031428;28;20038;-68
2024/02/29 10:15:29;;;;;;;4.65;2.63;;;10.60;83.00;;;;;;5030917;28;20156;-66
2024/02/29 10:17:56;;;;;;;5.03;2.08;;;10.60;83.00;;;;;;5029366;28;20052;-65
2024/02/29 10:20:22;;;;;;;7.32;3.33;;;10.70;83.00;;;;;;5031867;28;20022;-65
2024/02/29 10:22:53;;;;;;;5.13;2.28;;;10.70;82.80;;;;;;5035169;28;20060;-65
2024/02/29 10:25:22;;;;;;;4.32;1.98;;;10.70;82.90;;;;;;5023883;28;20037;-64
2024/02/29 10:27:48;;;;;;;5.10;2.25;;;10.70;82.80;;;;;;5032373;28;20025;-63
2024/02/29 10:30:15;;;;;;;4.38;2.00;;;10.70;82.70;;;;;;5032106;28;20033;-64
2024/02/29 10:32:42;;;;;;;3.03;1.98;;;10.80;82.70;;;;;;5031358;28;20117;-64
2024/02/29 10:35:22;;;;;;;4.95;2.00;;;10.80;82.70;;;;;;5036353;28;20504;-64
2024/02/29 10:37:51;;;;;;;3.75;1.83;;;10.80;82.60;;;;;;5034975;28;20037;-64
2024/02/29 10:40:17;;;;;;;5.45;2.85;;;10.80;82.60;;;;;;5032322;28;20036;-64
2024/02/29 10:42:43;;;;;;;7.82;3.13;;;10.80;82.60;;;;;;5034549;28;20026;-65
2024/02/29 10:45:16;;;;;;;5.20;3.10;;;10.80;82.50;;;;;;5030512;28;20087;-65
2024/02/29 10:47:51;;;;;;;5.97;3.53;;;10.80;82.50;;;;;;5024022;28;20056;-63
2024/02/29 10:50:24;;;;;;;3.38;1.90;;;10.90;82.50;;;;;;5022745;28;20033;-63
2024/02/29 10:53:01;;;;;;;5.30;2.30;;;10.90;82.30;;;;;;5025076;28;20183;-62
2024/02/29 10:55:33;;;;;;;5.88;2.85;;;11.00;82.40;;;;;;5027689;28;20469;-62
2024/02/29 10:58:09;;;;;;;5.30;1.77;;;11.00;82.30;;;;;;5030924;28;20768;-65
2024/02/29 11:00:36;;;;;;;6.20;3.15;;;11.00;82.30;;;;;;5023383;28;20025;-64
2024/02/29 11:03:04;;;;;;;4.97;2.53;;;11.00;82.30;;;;;;5033897;28;20586;-65
2024/02/29 11:05:30;;;;;;;3.58;2.50;;;11.00;82.20;;;;;;5034188;28;20029;-65
2024/02/29 11:07:55;;;;;;;3.88;2.05;;;11.00;82.20;;;;;;5023402;28;20029;-65
2024/02/29 11:10:22;;;;;;;4.57;2.38;;;11.00;82.00;;;;;;5027664;28;20033;-64
2024/02/29 11:12:55;;;;;;;3.90;2.38;;;10.90;82.00;;;;;;5038940;28;20020;-64
2024/02/29 11:15:25;;;;;;;4.43;2.42;;;10.90;82.20;;;;;;5055814;28;20034;-65
2024/02/29 11:17:51;;;;;;;4.35;2.42;;;11.00;82.20;;;;;;5022490;28;20443;-64
2024/02/29 11:20:21;;;;;;;4.95;2.30;;;11.10;82.10;;;;;;5036567;28;20117;-65
2024/02/29 11:22:47;;;;;;;3.95;2.55;;;11.10;81.90;;;;;;5037285;28;20049;-64
2024/02/29 11:25:22;;;;;;;3.70;1.92;;;11.10;81.80;;;;;;5040190;28;20482;-65
2024/02/29 11:27:51;;;;;;;4.75;2.30;;;11.10;81.80;;;;;;5011074;28;20026;-64
2024/02/29 11:30:20;;;;;;;5.10;2.67;;;11.10;81.80;;;;;;5029678;28;20041;-65
2024/02/29 11:32:46;;;;;;;4.22;2.30;;;11.20;81.80;;;;;;5027994;28;20028;-65
2024/02/29 11:35:14;;;;;;;4.20;2.25;;;11.10;81.80;;;;;;5027609;28;20041;-65
2024/02/29 11:37:43;;;;;;;4.38;2.08;;;11.10;81.80;;;;;;5030493;28;20046;-64
2024/02/29 11:40:13;;;;;;;3.75;2.10;;;11.10;81.80;;;;;;5034483;28;20037;-65
2024/02/29 11:42:38;;;;;;;5.15;2.33;;;11.10;81.70;;;;;;5029279;28;20471;-65
2024/02/29 11:45:06;;;;;;;9.55;2.42;;;11.10;81.80;;;;;;5014358;28;20042;-65
2024/02/29 11:47:32;;;;;;;5.40;1.88;;;11.10;81.70;;;;;;5013754;28;20068;-64
2024/02/29 11:49:59;;;;;;;2.70;1.95;;;11.10;81.60;;;;;;5033944;28;20053;-68
2024/02/29 11:52:25;;;;;;;4.32;1.83;;;11.20;81.60;;;;;;5020437;28;20431;-68
2024/02/29 11:54:52;;;;;;;2.92;2.00;;;11.20;81.60;;;;;;5036423;28;20024;-68
2024/02/29 11:57:18;;;;;;;3.53;2.08;;;11.20;81.60;;;;;;5031565;28;20017;-68
2024/02/29 11:59:44;;;;;;;3.55;2.05;;;11.20;81.50;;;;;;5028294;28;20021;-68
2024/02/29 12:02:10;;;;;;;4.18;1.60;;;11.20;81.50;;;;;;5031919;28;20527;-68
2024/02/29 12:04:36;;;;;;;4.43;2.60;;;11.20;81.60;;;;;;5034989;28;20047;-68
2024/02/29 12:07:02;;;;;;;2.78;1.40;;;11.20;81.70;;;;;;5033374;28;20121;-68
2024/02/29 12:09:34;;;;;;;3.47;1.42;;;11.20;81.60;;;;;;5029287;28;20548;-68
2024/02/29 12:11:59;;;;;;;2.30;1.67;;;11.30;81.50;;;;;;5030496;28;20037;-68
2024/02/29 12:14:25;;;;;;;5.50;2.42;;;11.30;81.60;;;;;;5032460;28;20503;-68
2024/02/29 12:16:52;;;;;;;3.05;1.92;;;11.30;81.50;;;;;;5020496;28;20117;-68
2024/02/29 12:19:17;;;;;;;3.10;2.40;;;11.30;81.50;;;;;;5031160;28;20037;-68
2024/02/29 12:21:43;;;;;;;4.25;2.45;;;11.30;81.60;;;;;;5035961;28;20041;-68
2024/02/29 12:24:12;;;;;;;3.67;2.63;;;11.30;81.70;;;;;;5034781;28;20040;-69
2024/02/29 12:26:40;;;;;;;3.20;1.90;;;11.30;81.90;;;;;;5030269;28;20075;-68
2024/02/29 12:29:07;;;;;;;4.38;2.50;;;11.30;82.10;;;;;;5034668;28;20059;-68
2024/02/29 12:31:34;;;;;;;3.90;2.30;;;11.30;82.30;;;;;;5028422;28;20499;-68
2024/02/29 12:34:00;;;;;;;4.10;1.60;;;11.30;82.30;;;;;;5025438;28;20021;-68
2024/02/29 12:36:28;;;;;;;2.90;1.83;;;11.30;82.50;;;;;;5032565;28;20030;-68
2024/02/29 12:38:53;;;;;;;4.63;1.83;;;11.30;82.50;;;;;;5032324;28;20041;-68
2024/02/29 12:41:20;;;;;;;3.25;2.03;;;11.40;82.70;;;;;;5033348;28;20111;-68
2024/02/29 12:43:50;;;;;;;6.55;2.30;;;11.40;82.70;;;;;;5031664;28;20026;-68
2024/02/29 12:46:16;;;;;;;4.55;2.03;;;11.40;82.90;;;;;;5036093;28;20102;-68
2024/02/29 12:48:46;;;;;;;3.75;2.45;;;11.40;83.10;;;;;;5029201;28;20164;-68
2024/02/29 12:51:12;;;;;;;3.75;2.13;;;11.30;83.00;;;;;;5028881;28;20041;-68
2024/02/29 12:53:37;;;;;;;3.17;1.75;;;11.30;83.10;;;;;;5029848;28;20028;-68